Time;durP1;ratioP1;P1;durP2;ratioP2;P2;SDS_P1;SDS_P2;PMS_P1;PMS_P2;Temp;Humidity;BMP_temperature;BMP_pressure;BME280_temperature;BME280_humidity;BME280_pressure;Samples;Min_cycle;Max_cycle;Signal;HPM_P1;HPM_P2
2022/04/23 00:02:04;;;;;;;11.30;9.93;;;;;;;10.22;nan;97861.88;4987559;28;20492;-74
2022/04/23 00:04:30;;;;;;;11.05;10.05;;;;;;;10.11;nan;97865.47;4989485;28;20659;-72
2022/04/23 00:06:59;;;;;;;9.10;7.77;;;;;;;10.04;nan;97868.75;4988565;28;20215;-74
2022/04/23 00:09:25;;;;;;;10.30;9.30;;;;;;;9.97;nan;97869.31;4989802;28;20728;-72
2022/04/23 00:11:55;;;;;;;11.83;9.53;;;;;;;9.92;nan;97874.13;4990422;28;20239;-73
2022/04/23 00:14:21;;;;;;;13.02;9.88;;;;;;;9.79;nan;97870.94;4989459;28;20232;-74
2022/04/23 00:16:47;;;;;;;10.45;9.30;;;;;;;;;;4988968;28;20219;-74
2022/04/23 00:19:12;;;;;;;11.10;9.40;;;;;;;;;;4985518;28;20236;-73
2022/04/23 00:21:37;;;;;;;10.40;9.50;;;;;;;;;;4987921;28;20238;-73
2022/04/23 00:24:04;;;;;;;10.23;8.83;;;;;;;;;;4988455;28;20199;-72
2022/04/23 00:26:29;;;;;;;11.15;8.88;;;;;;;;;;4970495;28;20211;-74
2022/04/23 00:28:55;;;;;;;8.97;8.00;;;;;;;;;;4987539;28;20895;-73
2022/04/23 00:31:20;;;;;;;11.43;9.60;;;;;;;;;;4989503;28;20684;-74
2022/04/23 00:33:45;;;;;;;10.63;8.60;;;;;;;9.47;nan;97877.19;4989274;28;20218;-72
2022/04/23 00:36:11;;;;;;;9.77;8.80;;;;;;;9.46;nan;97878.16;4988933;28;20302;-73
2022/04/23 00:38:42;;;;;;;12.80;8.90;;;;;;;9.48;nan;97875.44;4987313;28;20231;-73
2022/04/23 00:41:08;;;;;;;9.77;8.77;;;;;;;9.48;nan;97873.63;4985203;28;20211;-74
2022/04/23 00:43:34;;;;;;;10.52;9.43;;;;;;;9.51;nan;97883.84;4970564;28;20717;-72
2022/04/23 00:46:01;;;;;;;9.95;8.68;;;;;;;9.55;nan;97886.19;4985571;28;20242;-72
2022/04/23 00:48:26;;;;;;;10.38;9.30;;;;;;;9.57;nan;97879.84;4985084;28;20220;-72
2022/04/23 00:50:55;;;;;;;10.70;9.60;;;;;;;9.58;nan;97881.50;4988945;28;20266;-73
2022/04/23 00:53:21;;;;;;;13.35;8.60;;;;;;;9.56;nan;97878.22;4986920;28;20619;-73
2022/04/23 00:55:47;;;;;;;10.52;8.90;;;;;;;9.48;nan;97881.50;4970204;28;20227;-73
2022/04/23 00:58:16;;;;;;;11.07;9.23;;;;;;;9.31;nan;97875.06;4987715;28;20604;-74
2022/04/23 01:00:43;;;;;;;11.52;9.60;;;;;;;9.18;nan;97876.25;4987402;28;20446;-72
2022/04/23 01:03:10;;;;;;;12.68;10.98;;;;;;;9.09;nan;97876.09;4986147;28;20511;-73
2022/04/23 01:05:36;;;;;;;11.80;9.63;;;;;;;8.99;nan;97877.00;4986978;28;20620;-74
2022/04/23 01:08:04;;;;;;;16.17;10.77;;;;;;;8.96;nan;97877.25;4987499;28;20215;-72
2022/04/23 01:10:30;;;;;;;10.80;9.80;;;;;;;8.93;nan;97882.75;4986465;28;20624;-73
2022/04/23 01:12:55;;;;;;;10.77;8.63;;;;;;;8.86;nan;97880.66;4985272;28;20681;-74
2022/04/23 01:15:21;;;;;;;10.90;9.80;;;;;;;8.85;nan;97884.22;4985008;28;20278;-72
2022/04/23 01:17:49;;;;;;;11.43;10.37;;;;;;;8.86;nan;97882.47;4988020;28;20242;-74
2022/04/23 01:20:16;;;;;;;11.85;10.57;;;;;;;8.88;nan;97890.16;4985838;28;20262;-72
2022/04/23 01:22:43;;;;;;;11.93;10.55;;;;;;;8.82;nan;97887.09;4985769;28;20204;-72
2022/04/23 01:25:12;;;;;;;11.88;10.68;;;;;;;8.75;nan;97890.34;4969774;28;20196;-73
2022/04/23 01:27:39;;;;;;;13.10;11.40;;;;;;;8.73;nan;97889.69;4986130;28;20297;-72
2022/04/23 01:30:07;;;;;;;11.95;10.80;;;;;;;8.73;nan;97889.69;4987342;28;20210;-72
2022/04/23 01:32:32;;;;;;;12.63;11.32;;;;;;;8.75;nan;97892.97;4982549;28;20759;-73
2022/04/23 01:34:58;;;;;;;13.87;12.37;;;;;;;8.75;nan;97891.22;4987650;28;20600;-72
2022/04/23 01:37:24;;;;;;;14.43;12.30;;;;;;;8.75;nan;97888.59;4985942;28;20683;-72
2022/04/23 01:39:49;;;;;;;13.20;11.73;;;;;;;8.78;nan;97892.75;4985877;28;20211;-73
2022/04/23 01:42:19;;;;;;;14.10;11.67;;;;;;;8.79;nan;97889.16;4985733;28;20298;-72
2022/04/23 01:44:49;;;;;;;12.40;11.10;;;;;;;8.81;nan;97887.25;4984740;28;20766;-73
2022/04/23 01:47:14;;;;;;;13.55;12.07;;;;;;;8.84;nan;97894.84;4987839;28;20208;-75
2022/04/23 01:49:41;;;;;;;15.30;10.97;;;;;;;8.86;nan;97895.56;4985981;28;20246;-72
2022/04/23 01:52:07;;;;;;;13.55;9.85;;;;;;;8.87;nan;97899.81;4986578;28;20225;-73
2022/04/23 01:54:33;;;;;;;13.48;10.75;;;;;;;8.89;nan;97897.09;4986824;28;20615;-72
2022/04/23 01:56:59;;;;;;;13.25;11.85;;;;;;;8.90;nan;97901.34;4983595;28;20727;-72
2022/04/23 01:59:28;;;;;;;13.65;12.02;;;;;;;8.90;nan;97899.56;5014015;23;20242;-90
2022/04/23 02:01:53;;;;;;;11.82;10.57;;;;;;;8.90;nan;97896.13;5016332;28;20320;-91
2022/04/23 02:04:24;;;;;;;11.10;9.93;;;;;;;8.92;nan;97895.03;5006290;28;20226;-91
2022/04/23 02:06:49;;;;;;;12.60;10.85;;;;;;;8.95;nan;97897.38;4983480;28;20210;-90
2022/04/23 02:09:15;;;;;;;11.87;10.60;;;;;;;8.95;nan;97893.94;5014889;28;20209;-92
2022/04/23 02:11:43;;;;;;;13.50;11.53;;;;;;;8.96;nan;97899.03;5012405;28;20199;-90
2022/04/23 02:14:09;;;;;;;13.38;10.98;;;;;;;8.99;nan;97896.19;5013646;28;21058;-92
2022/04/23 02:16:37;;;;;;;12.25;11.00;;;;;;;8.98;nan;97901.53;5010430;28;20229;-90
2022/04/23 02:19:03;;;;;;;12.20;9.87;;;;;;;8.97;nan;97902.50;5014384;28;20241;-90
2022/04/23 02:21:30;;;;;;;14.85;11.38;;;;;;;8.97;nan;97899.88;5013056;28;20790;-92
2022/04/23 02:23:56;;;;;;;12.43;10.10;;;;;;;8.95;nan;97896.56;5020164;28;20194;-91
2022/04/23 02:26:22;;;;;;;12.82;11.52;;;;;;;8.92;nan;97889.78;5014692;28;20235;-92
2022/04/23 02:28:48;;;;;;;14.93;10.60;;;;;;;8.85;nan;97899.94;5014267;28;20218;-91
2022/04/23 02:31:17;;;;;;;13.35;10.35;;;;;;;8.69;nan;97896.13;5013975;28;20684;-90
2022/04/23 02:33:44;;;;;;;13.60;11.35;;;;;;;8.51;nan;97899.31;4999341;28;20252;-91
2022/04/23 02:36:11;;;;;;;14.40;11.55;;;;;;;8.45;nan;97902.41;5017173;28;20253;-91
2022/04/23 02:38:40;;;;;;;14.65;12.00;;;;;;;8.49;nan;97889.94;5015342;28;20218;-91
2022/04/23 02:41:09;;;;;;;13.68;11.73;;;;;;;8.48;nan;97883.88;4999954;28;20291;-91
2022/04/23 02:43:36;;;;;;;16.33;11.50;;;;;;;8.46;nan;97882.34;5016636;28;20211;-91
2022/04/23 02:46:07;;;;;;;10.98;9.88;;;;;;;8.47;nan;97879.56;5011263;28;20207;-91
2022/04/23 02:48:36;;;;;;;12.38;10.40;;;;;;;8.51;nan;97877.56;5015345;28;20332;-91
2022/04/23 02:51:02;;;;;;;14.27;10.90;;;;;;;8.53;nan;97878.22;4984623;28;20217;-91
2022/04/23 02:53:28;;;;;;;14.47;12.47;;;;;;;8.57;nan;97887.50;5017547;28;20209;-91
2022/04/23 02:55:57;;;;;;;12.63;10.98;;;;;;;8.59;nan;97885.59;5002710;28;20995;-90
2022/04/23 02:58:25;;;;;;;12.10;10.25;;;;;;;8.57;nan;97884.88;5026163;28;20218;-91
2022/04/23 03:00:53;;;;;;;11.85;10.57;;;;;;;8.54;nan;97878.13;5027609;28;20218;-91
2022/04/23 03:03:19;;;;;;;12.40;11.07;;;;;;;8.55;nan;97885.00;5031070;28;20214;-91
2022/04/23 03:05:45;;;;;;;12.20;10.40;;;;;;;8.57;nan;97877.88;5026781;28;20253;-91
2022/04/23 03:08:12;;;;;;;13.80;11.15;;;;;;;8.61;nan;97881.91;5026164;28;20948;-90
2022/04/23 03:10:39;;;;;;;12.70;11.00;;;;;;;8.60;nan;97887.25;5009472;28;20278;-90
2022/04/23 03:13:07;;;;;;;15.93;12.60;;;;;;;8.48;nan;97881.25;5028970;28;20996;-90
2022/04/23 03:15:34;;;;;;;12.18;10.80;;;;;;;8.37;nan;97881.25;5025324;28;20562;-91
2022/04/23 03:18:13;;;;;;;13.15;10.00;;;;;;;8.33;nan;97880.69;5027198;28;20232;-90
2022/04/23 03:20:41;;;;;;;13.68;11.65;;;;;;;8.33;nan;97874.63;5027593;28;20198;-90
2022/04/23 03:23:07;;;;;;;14.52;11.18;;;;;;;8.36;nan;97874.38;5031190;28;20213;-91
2022/04/23 03:25:33;;;;;;;18.93;12.37;;;;;;;8.36;nan;97879.59;5010733;28;20198;-91
2022/04/23 03:28:00;;;;;;;13.00;11.57;;;;;;;8.38;nan;97878.53;5029560;28;20464;-91
2022/04/23 03:30:29;;;;;;;15.15;11.82;;;;;;;8.40;nan;97881.06;5016046;28;20252;-90
2022/04/23 03:32:54;;;;;;;15.68;13.95;;;;;;;8.41;nan;97880.09;5016703;28;20485;-91
2022/04/23 03:35:20;;;;;;;16.30;12.77;;;;;;;8.40;nan;97886.28;4992750;28;20226;-91
2022/04/23 03:37:47;;;;;;;13.95;10.13;;;;;;;8.36;nan;97884.84;5024609;28;20209;-90
2022/04/23 03:40:13;;;;;;;11.73;10.18;;;;;;;8.30;nan;97882.72;5011996;28;20290;-90
2022/04/23 03:42:39;;;;;;;12.67;11.27;;;;;;;8.29;nan;97878.44;5036738;28;20202;-90
2022/04/23 03:45:08;;;;;;;12.47;10.93;;;;;;;8.27;nan;97875.13;5039832;28;20545;-90
2022/04/23 03:47:34;;;;;;;13.45;12.07;;;;;;;8.26;nan;97881.31;5028515;28;20543;-90
2022/04/23 03:50:10;;;;;;;12.77;11.30;;;;;;;8.30;nan;97882.72;5018445;28;20202;-90
2022/04/23 03:52:40;;;;;;;12.52;10.50;;;;;;;8.33;nan;97885.09;5014872;28;20202;-90
2022/04/23 03:55:06;;;;;;;11.85;10.65;;;;;;;8.31;nan;97884.38;5013421;28;20223;-91
2022/04/23 03:57:42;;;;;;;17.00;11.40;;;;;;;8.31;nan;97882.59;5011478;28;20226;-91
2022/04/23 04:00:09;;;;;;;15.82;11.32;;;;;;;8.32;nan;97884.25;5011979;28;20544;-90
2022/04/23 04:02:35;;;;;;;16.60;13.07;;;;;;;8.33;nan;97877.25;5013627;28;20947;-91
2022/04/23 04:05:04;;;;;;;17.85;12.80;;;;;;;8.30;nan;97883.56;5016534;28;20247;-91
2022/04/23 04:07:30;;;;;;;15.32;12.60;;;;;;;8.28;nan;97872.38;5014805;28;20639;-90
2022/04/23 04:09:55;;;;;;;13.23;11.83;;;;;;;8.26;nan;97871.66;5021044;28;20215;-91
2022/04/23 04:12:21;;;;;;;15.27;12.63;;;;;;;8.25;nan;97867.41;5010159;28;20207;-91
2022/04/23 04:14:57;;;;;;;12.90;11.30;;;;;;;8.27;nan;97867.28;5005640;28;20224;-92
2022/04/23 04:17:26;;;;;;;14.05;11.77;;;;;;;8.29;nan;97870.59;5018602;28;20923;-92
2022/04/23 04:19:59;;;;;;;15.50;11.90;;;;;;;8.31;nan;97869.50;4995839;28;20217;-91
2022/04/23 04:22:35;;;;;;;14.13;12.70;;;;;;;8.32;nan;97867.75;5018375;28;20237;-91
2022/04/23 04:25:02;;;;;;;18.83;13.18;;;;;;;8.32;nan;97857.28;5016601;28;20203;-92
2022/04/23 04:27:28;;;;;;;19.10;13.27;;;;;;;8.31;nan;97860.84;4983733;28;20288;-92
2022/04/23 04:29:54;;;;;;;14.37;12.83;;;;;;;8.30;nan;97861.81;5011209;28;20210;-89
2022/04/23 04:32:22;;;;;;;18.03;12.80;;;;;;;8.32;nan;97865.97;5015520;28;20210;-92
2022/04/23 04:34:48;;;;;;;16.02;13.65;;;;;;;8.30;nan;97867.84;5012328;28;20600;-89
2022/04/23 04:37:22;;;;;;;16.50;13.90;;;;;;;8.30;nan;97867.03;5001187;28;20212;-90
2022/04/23 04:39:47;;;;;;;13.97;12.07;;;;;;;8.31;nan;97872.13;4994734;28;20198;-88
2022/04/23 04:42:14;;;;;;;16.03;12.73;;;;;;;8.33;nan;97862.38;5015593;28;20218;-91
2022/04/23 04:44:40;;;;;;;21.30;13.35;;;;;;;8.39;nan;97874.16;5018696;28;20237;-90
2022/04/23 04:47:19;;;;;;;16.02;13.68;;;;;;;8.43;nan;97878.19;5018400;28;20210;-89
2022/04/23 04:49:49;;;;;;;15.52;12.88;;;;;;;8.49;nan;97877.66;5016341;28;20233;-89
2022/04/23 04:52:18;;;;;;;16.05;12.05;;;;;;;8.54;nan;97867.66;5026466;28;20223;-89
2022/04/23 04:54:46;;;;;;;17.23;12.50;;;;;;;8.57;nan;97863.97;5020809;28;20365;-90
2022/04/23 04:57:15;;;;;;;14.35;12.90;;;;;;;8.62;nan;97867.84;4996706;28;20241;-90
2022/04/23 04:59:43;;;;;;;15.30;13.73;;;;;;;8.68;nan;97863.06;5015384;28;20218;-90
2022/04/23 05:02:12;;;;;;;16.42;13.40;;;;;;;8.74;nan;97875.63;5019890;28;20481;-90
2022/04/23 05:04:50;;;;;;;17.70;13.52;;;;;;;8.81;nan;97874.16;5019467;28;20198;-89
2022/04/23 05:07:25;;;;;;;15.32;12.80;;;;;;;8.84;nan;97876.53;5004861;28;20241;-90
2022/04/23 05:09:51;;;;;;;17.10;13.77;;;;;;;8.89;nan;97878.75;5017460;28;20930;-91
2022/04/23 05:12:35;;;;;;;14.83;13.23;;;;;;;8.93;nan;97873.13;5000825;28;20301;-90
2022/04/23 05:15:05;;;;;;;15.35;13.73;;;;;;;9.01;nan;97881.16;5021243;28;20229;-91
2022/04/23 05:17:31;;;;;;;17.50;13.65;;;;;;;9.09;nan;97883.13;5010232;28;20203;-92
2022/04/23 05:19:56;;;;;;;19.03;14.47;;;;;;;9.08;nan;97881.47;5015722;28;20435;-91
2022/04/23 05:22:38;;;;;;;19.83;14.30;;;;;;;9.12;nan;97887.25;5023994;28;20222;-91
2022/04/23 05:25:05;;;;;;;18.48;14.90;;;;;;;9.17;nan;97882.47;5016104;28;20317;-90
2022/04/23 05:27:30;;;;;;;16.55;13.25;;;;;;;9.19;nan;97888.41;5008866;28;20202;-91
2022/04/23 05:29:58;;;;;;;19.87;15.70;;;;;;;9.22;nan;97890.75;5014864;28;20209;-90
2022/04/23 05:32:24;;;;;;;17.98;15.48;;;;;;;9.22;nan;97896.00;5026915;28;20214;-92
2022/04/23 05:34:50;;;;;;;20.80;15.97;;;;;;;9.24;nan;97894.91;5013725;28;20444;-91
2022/04/23 05:37:16;;;;;;;21.30;17.07;;;;;;;9.29;nan;97894.53;5014204;28;20345;-92
2022/04/23 05:39:41;;;;;;;19.40;15.17;;;;;;;9.33;nan;97902.94;5006884;28;20445;-92
2022/04/23 05:42:07;;;;;;;18.10;15.30;;;;;;;9.34;nan;97901.97;4977082;28;20206;-90
2022/04/23 05:44:39;;;;;;;20.10;15.70;;;;;;;9.34;nan;97912.47;5014415;28;20550;-92
2022/04/23 05:47:04;;;;;;;16.90;15.10;;;;;;;9.34;nan;97918.53;5012383;28;20206;-90
2022/04/23 05:49:30;;;;;;;22.13;16.20;;;;;;;9.39;nan;97918.13;4994238;28;20880;-93
2022/04/23 05:51:58;;;;;;;22.23;16.37;;;;;;;9.41;nan;97919.66;5017214;28;20562;-88
2022/04/23 05:54:24;;;;;;;25.38;17.10;;;;;;;9.44;nan;97915.97;5019204;28;20228;-88
2022/04/23 05:56:49;;;;;;;24.23;17.90;;;;;;;9.46;nan;97922.72;5019624;28;20195;-89
2022/04/23 05:59:15;;;;;;;21.10;16.27;;;;;;;9.47;nan;97932.22;5020695;28;20239;-90
2022/04/23 06:01:40;;;;;;;19.93;16.43;;;;;;;9.51;nan;97927.56;4992932;28;20249;-90
2022/04/23 06:04:06;;;;;;;22.97;16.60;;;;;;;9.57;nan;97944.56;5013602;28;20222;-90
2022/04/23 06:06:34;;;;;;;22.75;16.63;;;;;;;9.61;nan;97945.94;5011752;28;20206;-90
2022/04/23 06:08:59;;;;;;;24.40;18.70;;;;;;;9.65;nan;97942.13;4993287;28;20207;-90
2022/04/23 06:11:25;;;;;;;21.23;18.10;;;;;;;9.70;nan;97948.63;5009756;28;20276;-89
2022/04/23 06:13:50;;;;;;;21.20;17.17;;;;;;;9.74;nan;97952.63;5014891;28;20223;-89
2022/04/23 06:16:16;;;;;;;23.43;17.53;;;;;;;9.78;nan;97953.19;5012827;28;20251;-89
2022/04/23 06:18:42;;;;;;;21.83;17.60;;;;;;;9.77;nan;97954.16;5011563;28;20221;-90
2022/04/23 06:21:08;;;;;;;22.83;17.63;;;;;;;9.78;nan;97960.25;5017245;28;20211;-90
2022/04/23 06:23:36;;;;;;;23.77;18.17;;;;;;;9.79;nan;97967.97;5015193;28;20206;-91
2022/04/23 06:26:04;;;;;;;22.65;17.92;;;;;;;9.84;nan;97965.78;5016440;28;20191;-90
2022/04/23 06:28:30;;;;;;;20.53;16.20;;;;;;;9.90;nan;97974.91;5019755;28;20722;-90
2022/04/23 06:30:58;;;;;;;20.98;18.13;;;;;;;9.93;nan;97975.44;5021413;28;20506;-89
2022/04/23 06:33:24;;;;;;;21.70;16.70;;;;;;;9.99;nan;97981.97;5023415;28;20214;-90
2022/04/23 06:35:50;;;;;;;26.10;17.92;;;;;;;10.01;nan;97977.41;5017549;28;20230;-90
2022/04/23 06:38:16;;;;;;;22.20;16.88;;;;;;;10.02;nan;97975.59;5020552;28;20281;-90
2022/04/23 06:40:41;;;;;;;25.13;18.23;;;;;;;10.02;nan;97981.72;5015286;28;20352;-90
2022/04/23 06:43:09;;;;;;;23.30;15.55;;;;;;;10.02;nan;97988.72;5021899;28;20210;-89
2022/04/23 06:45:45;;;;;;;23.05;17.38;;;;;;;9.95;nan;97978.78;5016587;28;20233;-88
2022/04/23 06:48:13;;;;;;;19.80;16.70;;;;;;;9.92;nan;97976.41;5034045;28;20619;-90
2022/04/23 06:54:23;;;;;;;23.23;16.67;;;;;;;9.87;nan;97983.84;5032341;28;20236;-89
2022/04/23 06:56:58;;;;;;;22.10;17.10;;;;;;;9.89;nan;97981.94;5033557;28;20608;-89
2022/04/23 07:00:01;;;;;;;24.92;19.40;;;;;;;9.85;nan;97993.63;5010892;28;20239;-89
2022/04/23 07:02:56;;;;;;;21.25;17.17;;;;;;;9.81;nan;97989.63;5009604;28;20231;-88
2022/04/23 07:05:51;;;;;;;24.20;17.98;;;;;;;9.85;nan;97987.56;5019119;28;20310;-88
2022/04/23 07:09:03;;;;;;;22.10;16.60;;;;;;;9.91;nan;97985.25;5016952;28;20206;-88
2022/04/23 07:11:38;;;;;;;21.88;17.88;;;;;;;9.87;nan;97985.66;5016985;28;20594;-88
2022/04/23 07:14:21;;;;;;;24.20;19.35;;;;;;;9.88;nan;97990.78;5022811;28;20246;-86
2022/04/23 07:17:12;;;;;;;23.58;17.75;;;;;;;9.93;nan;97990.34;5020792;28;20314;-89
2022/04/23 07:19:50;;;;;;;24.02;17.98;;;;;;;9.91;nan;97995.75;5024993;28;20211;-87
2022/04/23 07:25:46;;;;;;;21.75;18.30;;;;;;;9.83;nan;97995.59;5021847;28;20218;-88
2022/04/23 07:28:44;;;;;;;;;;;;;;;;;;;;;
2022/04/23 07:31:44;;;;;;;23.60;17.85;;;;;;;10.10;nan;97997.59;5019469;28;20215;-88
2022/04/23 07:39:44;;;;;;;20.25;16.33;;;;;;;10.80;nan;98000.19;4966999;28;20256;-77
2022/04/23 07:42:13;;;;;;;22.25;17.70;;;;;;;11.13;nan;97996.31;4975083;28;20212;-77
2022/04/23 07:44:39;;;;;;;19.42;16.30;;;;;;;11.35;nan;97991.72;4961823;28;20212;-77
2022/04/23 07:47:05;;;;;;;24.97;18.13;;;;;;;11.60;nan;97998.13;4956154;28;20213;-78
2022/04/23 07:49:34;;;;;;;22.17;17.50;;;;;;;11.86;nan;97996.53;4956957;28;20495;-77
2022/04/23 07:52:00;;;;;;;22.75;17.65;;;;;;;12.07;nan;98001.56;4966909;28;20211;-78
2022/04/23 07:57:12;;;;;;;22.48;16.10;;;;;;;12.33;nan;97998.22;3237541;26;20246;-79
2022/04/23 07:59:41;;;;;;;21.35;17.52;;;;;;;12.28;nan;97998.66;5011143;28;20668;-78
2022/04/23 08:02:08;;;;;;;23.88;17.30;;;;;;;12.25;nan;97988.44;4973955;28;20237;-77
2022/04/23 08:04:35;;;;;;;21.83;18.20;;;;;;;12.18;nan;97998.75;5007942;28;20417;-80
2022/04/23 08:07:04;;;;;;;18.67;16.05;;;;;;;12.03;nan;97989.66;5008853;28;20214;-77
2022/04/23 08:09:31;;;;;;;28.08;18.50;;;;;;;11.99;nan;97985.69;5007618;28;20222;-78
2022/04/23 08:11:57;;;;;;;20.70;17.52;;;;;;;12.01;nan;97999.50;5007228;28;20317;-78
2022/04/23 08:14:23;;;;;;;21.90;18.42;;;;;;;12.08;nan;97994.50;5008296;28;20269;-77
2022/04/23 08:16:52;;;;;;;32.40;19.13;;;;;;;12.14;nan;97994.72;5007933;28;20202;-76
2022/04/23 08:19:19;;;;;;;27.27;17.42;;;;;;;12.20;nan;97992.50;4989072;28;20229;-78
2022/04/23 08:21:48;;;;;;;24.38;17.25;;;;;;;12.23;nan;98002.72;5008014;28;20635;-77
2022/04/23 08:24:14;;;;;;;30.38;20.85;;;;;;;12.24;nan;97999.94;4990596;28;20207;-77
2022/04/23 08:26:40;;;;;;;24.80;20.33;;;;;;;12.31;nan;98000.19;5006891;28;20202;-77
2022/04/23 08:32:00;;;;;;;27.90;21.90;;;;;;;12.31;nan;97995.75;5008121;28;20203;-77
2022/04/23 08:34:26;;;;;;;24.70;20.07;;;;;;;12.32;nan;97992.16;4990371;28;20230;-78
2022/04/23 08:36:52;;;;;;;25.63;18.70;;;;;;;12.33;nan;97992.97;5007236;28;20614;-79
2022/04/23 08:39:18;;;;;;;31.53;21.00;;;;;;;12.33;nan;97998.22;5006928;28;20227;-78
2022/04/23 08:41:48;;;;;;;23.83;18.92;;;;;;;12.31;nan;98008.94;5007600;28;20513;-77
2022/04/23 08:44:27;;;;;;;23.55;20.20;;;;;;;12.25;nan;98004.22;5009278;28;20762;-80
2022/04/23 08:46:54;;;;;;;22.38;19.55;;;;;;;12.26;nan;98015.59;5004219;28;20313;-78
2022/04/23 08:49:32;;;;;;;23.85;19.17;;;;;;;12.24;nan;98014.94;5008782;28;20629;-77
2022/04/23 08:52:21;;;;;;;22.98;18.50;;;;;;;12.24;nan;98021.00;5008248;28;20206;-78
2022/04/23 08:54:51;;;;;;;29.85;19.92;;;;;;;12.23;nan;98019.34;5011135;28;20253;-78
2022/04/23 08:57:17;;;;;;;26.25;20.23;;;;;;;12.23;nan;98023.78;4992682;28;20242;-78
2022/04/23 08:59:48;;;;;;;26.60;21.05;;;;;;;12.21;nan;98023.94;5013187;28;20256;-77
2022/04/23 09:02:14;;;;;;;26.83;22.42;;;;;;;12.27;nan;98023.34;5013407;28;21083;-77
2022/04/23 09:04:44;;;;;;;27.60;20.30;;;;;;;12.33;nan;98028.03;4998632;28;20222;-78
2022/04/23 09:07:20;;;;;;;27.30;19.77;;;;;;;12.37;nan;98026.75;5017165;28;20469;-80
2022/04/23 09:09:51;;;;;;;25.95;20.10;;;;;;;12.43;nan;98030.59;4999374;28;20268;-78
2022/04/23 09:12:18;;;;;;;27.40;20.40;;;;;;;12.48;nan;98025.72;5011949;28;20230;-78
2022/04/23 09:14:48;;;;;;;27.75;21.35;;;;;;;12.57;nan;98021.38;4993129;28;20246;-77
2022/04/23 09:25:42;;;;;;;25.80;19.67;;;;;;;13.45;nan;98017.03;5006935;28;20187;-76
2022/04/23 09:28:19;;;;;;;23.88;19.17;;;;;;;13.79;nan;98005.69;5008532;28;20984;-78
2022/04/23 09:30:47;;;;;;;23.33;18.48;;;;;;;14.09;nan;98006.16;5007040;28;20209;-76
2022/04/23 09:33:14;;;;;;;23.27;17.67;;;;;;;14.39;nan;98000.31;5006887;28;20206;-78
2022/04/23 09:36:03;;;;;;;25.38;18.42;;;;;;;14.79;nan;97996.09;5006530;28;20228;-77
2022/04/23 09:38:31;;;;;;;21.33;17.48;;;;;;;15.10;nan;98002.59;5006100;28;20741;-77
2022/04/23 09:41:18;;;;;;;21.55;17.42;;;;;;;15.40;nan;97998.41;5008225;28;20203;-76
2022/04/23 09:43:50;;;;;;;20.42;16.60;;;;;;;15.53;nan;97992.59;5004145;28;20442;-79
2022/04/23 09:46:20;;;;;;;22.17;17.92;;;;;;;15.51;nan;97990.13;5008484;28;20472;-79
2022/04/23 09:49:03;;;;;;;21.25;16.17;;;;;;;15.67;nan;97995.38;4989801;28;20648;-78
2022/04/23 09:51:29;;;;;;;21.48;15.35;;;;;;;15.70;nan;97988.97;4989701;28;20563;-78
2022/04/23 09:53:55;;;;;;;18.85;16.02;;;;;;;15.74;nan;97986.78;5007045;28;20644;-79
2022/04/23 09:56:23;;;;;;;21.02;16.30;;;;;;;15.85;nan;97981.13;5008122;28;20242;-77
2022/04/23 09:58:50;;;;;;;17.85;14.40;;;;;;;16.02;nan;97988.03;5005877;28;20262;-77
2022/04/23 10:01:19;;;;;;;18.08;16.10;;;;;;;16.19;nan;97985.28;5006003;28;20217;-81
2022/04/23 10:03:49;;;;;;;19.95;15.50;;;;;;;16.34;nan;97986.22;5005262;28;20568;-78
2022/04/23 10:06:18;;;;;;;19.75;16.05;;;;;;;16.34;nan;97978.28;5008066;28;20219;-79
2022/04/23 10:08:49;;;;;;;17.88;15.88;;;;;;;16.40;nan;97977.56;5004911;28;20342;-77
2022/04/23 10:11:22;;;;;;;20.55;17.40;;;;;;;16.43;nan;97979.03;4988296;28;20205;-78
2022/04/23 10:13:56;;;;;;;18.80;15.00;;;;;;;16.42;nan;97980.88;5005372;28;20554;-77
2022/04/23 10:16:23;;;;;;;20.23;16.98;;;;;;;16.32;nan;97977.63;5007222;28;20240;-78
2022/04/23 10:18:49;;;;;;;17.35;15.45;;;;;;;16.13;nan;97982.34;5005898;28;20260;-79
2022/04/23 10:21:24;;;;;;;25.20;16.98;;;;;;;16.05;nan;97985.03;5004482;28;20686;-78
2022/04/23 10:24:06;;;;;;;18.63;16.05;;;;;;;15.97;nan;97979.75;5005703;28;20685;-78
2022/04/23 10:26:43;;;;;;;21.52;17.60;;;;;;;16.10;nan;97984.50;5006330;28;20361;-78
2022/04/23 10:29:15;;;;;;;21.73;17.05;;;;;;;16.17;nan;97984.63;5003875;28;20798;-77
2022/04/23 10:31:41;;;;;;;26.42;16.63;;;;;;;16.28;nan;97989.53;5004901;28;20207;-77
2022/04/23 10:34:33;;;;;;;23.17;16.13;;;;;;;16.35;nan;97995.81;5004411;28;20244;-78
2022/04/23 10:37:22;;;;;;;20.50;17.48;;;;;;;16.50;nan;97985.28;5004313;28;20245;-78
2022/04/23 10:39:51;;;;;;;15.35;13.18;;;;;;;16.56;nan;97989.91;5006558;28;20238;-78
2022/04/23 10:42:18;;;;;;;22.23;16.75;;;;;;;16.55;nan;97988.22;5005671;28;20275;-77
2022/04/23 10:44:45;;;;;;;19.58;16.13;;;;;;;16.56;nan;97985.41;5005758;28;20710;-77
2022/04/23 10:47:44;;;;;;;25.45;21.25;;;;;;;16.45;nan;97990.31;5010286;28;20206;-79
2022/04/23 10:50:29;;;;;;;23.40;16.95;;;;;;;16.45;nan;97992.94;4960185;28;20281;-78
2022/04/23 10:53:02;;;;;;;24.25;16.20;;;;;;;16.55;nan;97977.63;5021436;28;20210;-77
2022/04/23 10:55:31;;;;;;;18.50;15.38;;;;;;;16.57;nan;97978.28;5026435;28;20354;-77
2022/04/23 10:58:21;;;;;;;21.20;17.23;;;;;;;16.63;nan;97987.34;5020321;28;20254;-77
2022/04/23 11:00:47;;;;;;;18.83;16.23;;;;;;;16.70;nan;97988.31;5016821;28;20217;-78
2022/04/23 11:03:12;;;;;;;20.87;18.60;;;;;;;16.80;nan;97986.28;5012487;28;20220;-77
2022/04/23 11:13:56;;;;;;;25.63;17.30;;;;;;;16.97;nan;97998.41;5008959;28;20455;-78
2022/04/23 11:16:30;;;;;;;17.63;15.77;;;;;;;16.96;nan;97994.13;4991618;28;20792;-78
2022/04/23 11:18:59;;;;;;;18.88;15.75;;;;;;;16.81;nan;97993.22;5008857;28;20241;-77
2022/04/23 11:21:28;;;;;;;21.00;17.40;;;;;;;16.72;nan;97988.97;5008274;28;20241;-79
2022/04/23 11:23:59;;;;;;;18.00;16.15;;;;;;;16.66;nan;97987.84;5009793;28;20206;-77
2022/04/23 11:26:47;;;;;;;20.67;17.03;;;;;;;16.56;nan;97985.41;5009765;28;20221;-79
2022/04/23 11:29:17;;;;;;;18.47;15.60;;;;;;;16.53;nan;97993.72;4990987;28;20601;-78
2022/04/23 11:31:53;;;;;;;20.27;17.17;;;;;;;16.60;nan;97984.06;5008601;28;20457;-78
2022/04/23 11:34:19;;;;;;;21.80;18.43;;;;;;;16.63;nan;97979.41;4974940;28;20492;-77
2022/04/23 11:36:45;;;;;;;24.67;19.27;;;;;;;16.59;nan;97977.09;5009749;28;20497;-80
2022/04/23 11:39:14;;;;;;;23.40;17.93;;;;;;;16.51;nan;97995.72;5008704;28;20230;-77
2022/04/23 11:41:42;;;;;;;19.93;17.70;;;;;;;16.43;nan;97994.94;5010268;28;20816;-76
2022/04/23 11:44:15;;;;;;;22.88;18.13;;;;;;;16.39;nan;97986.53;5011007;28;20528;-78
2022/04/23 11:46:45;;;;;;;24.57;19.37;;;;;;;16.27;nan;97986.06;5010910;28;20215;-78
2022/04/23 11:49:31;;;;;;;19.63;17.53;;;;;;;16.22;nan;98001.66;5010681;28;20477;-77
2022/04/23 11:52:05;;;;;;;20.40;16.80;;;;;;;16.12;nan;97993.94;5002232;28;20651;-76
2022/04/23 11:54:38;;;;;;;21.02;17.88;;;;;;;16.05;nan;97992.16;5000982;28;20530;-76
2022/04/23 11:57:05;;;;;;;26.33;20.60;;;;;;;16.05;nan;97987.66;5002826;28;20624;-76
2022/04/23 11:59:42;;;;;;;23.48;19.00;;;;;;;16.13;nan;97984.97;5002940;28;20508;-79
2022/04/23 12:02:18;;;;;;;22.97;20.40;;;;;;;16.21;nan;97981.47;5001676;28;20499;-76
2022/04/23 12:04:44;;;;;;;23.95;20.02;;;;;;;16.16;nan;97983.81;5004605;28;20556;-76
2022/04/23 12:07:11;;;;;;;23.03;18.80;;;;;;;16.20;nan;97979.00;5003030;28;20229;-78
2022/04/23 12:09:53;;;;;;;23.10;19.60;;;;;;;16.30;nan;97980.44;5003077;28;20487;-79
2022/04/23 12:12:23;;;;;;;23.35;18.35;;;;;;;16.27;nan;97977.31;5002666;28;20452;-77
2022/04/23 12:14:53;;;;;;;23.17;18.20;;;;;;;16.24;nan;97983.78;5002937;28;20221;-76
2022/04/23 12:17:22;;;;;;;26.33;20.43;;;;;;;16.20;nan;97979.00;5002486;28;20471;-75
2022/04/23 12:19:51;;;;;;;22.10;18.10;;;;;;;16.12;nan;97971.91;5000731;28;20480;-74
2022/04/23 12:22:27;;;;;;;25.48;19.98;;;;;;;16.08;nan;97965.31;5000380;28;21024;-73
2022/04/23 12:25:16;;;;;;;23.15;20.45;;;;;;;16.14;nan;97970.72;4983923;28;20202;-73
2022/04/23 12:40:43;;;;;;;20.25;17.83;;;;;;;16.18;nan;97971.22;4999657;28;20221;-76
2022/04/23 12:42:21;;;;;;;25.23;20.17;;;;;;;16.26;nan;97941.22;4998868;28;20199;-75
2022/04/23 12:44:49;;;;;;;23.93;19.87;;;;;;;16.35;nan;97940.97;5002412;28;20997;-75